sensor_id;sensor_type;location;lat;lon;timestamp;pressure;altitude;pressure_sealevel;temperature;humidity
76866;BME280;66647;52.124;5.416;2023-05-10T00:00:42;100962.00;;;12.49;98.46
76866;BME280;66647;52.124;5.416;2023-05-10T00:03:09;100960.38;;;12.48;98.31
76866;BME280;66647;52.124;5.416;2023-05-10T00:05:36;100967.50;;;12.49;98.79
76866;BME280;66647;52.124;5.416;2023-05-10T00:08:03;100960.38;;;12.48;98.49
76866;BME280;66647;52.124;5.416;2023-05-10T00:10:29;100958.78;;;12.47;98.06
76866;BME280;66647;52.124;5.416;2023-05-10T00:12:56;100957.16;;;12.46;98.68
76866;BME280;66647;52.124;5.416;2023-05-10T00:15:22;100957.03;;;12.42;98.78
76866;BME280;66647;52.124;5.416;2023-05-10T00:17:50;100949.09;;;12.41;98.97
76866;BME280;66647;52.124;5.416;2023-05-10T00:20:17;100951.53;;;12.42;98.69
76866;BME280;66647;52.124;5.416;2023-05-10T00:22:43;100957.03;;;12.42;99.00
76866;BME280;66647;52.124;5.416;2023-05-10T00:25:10;100949.09;;;12.41;98.35
76866;BME280;66647;52.124;5.416;2023-05-10T00:27:37;100942.81;;;12.40;98.41
76866;BME280;66647;52.124;5.416;2023-05-10T00:30:04;100951.38;;;12.39;98.58
76866;BME280;66647;52.124;5.416;2023-05-10T00:32:31;100953.00;;;12.40;98.65
76866;BME280;66647;52.124;5.416;2023-05-10T00:34:57;100948.78;;;12.42;98.64
76866;BME280;66647;52.124;5.416;2023-05-10T00:37:27;100953.00;;;12.40;98.76
76866;BME280;66647;52.124;5.416;2023-05-10T00:39:54;100949.09;;;12.41;98.83
76866;BME280;66647;52.124;5.416;2023-05-10T00:42:20;100953.00;;;12.40;98.77
76866;BME280;66647;52.124;5.416;2023-05-10T00:44:47;100957.22;;;12.37;98.90
76866;BME280;66647;52.124;5.416;2023-05-10T00:47:15;100948.16;;;12.37;98.67
76866;BME280;66647;52.124;5.416;2023-05-10T00:49:42;100943.38;;;12.34;98.87
76866;BME280;66647;52.124;5.416;2023-05-10T00:52:10;100948.88;;;12.34;98.83
76866;BME280;66647;52.124;5.416;2023-05-10T00:54:38;100947.25;;;12.33;99.30
76866;BME280;66647;52.124;5.416;2023-05-10T00:57:05;100948.72;;;12.30;99.02
76866;BME280;66647;52.124;5.416;2023-05-10T00:59:32;100954.22;;;12.30;98.96
76866;BME280;66647;52.124;5.416;2023-05-10T01:01:58;100950.66;;;12.30;99.46
76866;BME280;66647;52.124;5.416;2023-05-10T01:04:25;100955.03;;;12.31;99.20
76866;BME280;66647;52.124;5.416;2023-05-10T01:06:52;100954.22;;;12.30;99.61
76866;BME280;66647;52.124;5.416;2023-05-10T01:09:21;100952.63;;;12.29;99.41
76866;BME280;66647;52.124;5.416;2023-05-10T01:11:48;100952.63;;;12.29;99.49
76866;BME280;66647;52.124;5.416;2023-05-10T01:14:18;100947.59;;;12.31;99.59
76866;BME280;66647;52.124;5.416;2023-05-10T01:16:47;100954.22;;;12.30;99.63
76866;BME280;66647;52.124;5.416;2023-05-10T01:19:25;100958.25;;;12.33;99.52
76866;BME280;66647;52.124;5.416;2023-05-10T01:28:08;100955.03;;;12.31;99.45
76866;BME280;66647;52.124;5.416;2023-05-10T01:36:40;100943.09;;;12.27;100.00
76866;BME280;66647;52.124;5.416;2023-05-10T01:39:13;100951.66;;;12.25;100.00
76866;BME280;66647;52.124;5.416;2023-05-10T01:41:51;100964.75;;;12.28;99.75
76866;BME280;66647;52.124;5.416;2023-05-10T01:44:37;100957.63;;;12.27;100.00
76866;BME280;66647;52.124;5.416;2023-05-10T01:47:17;100954.09;;;12.27;100.00
76866;BME280;66647;52.124;5.416;2023-05-10T01:49:47;100954.88;;;12.27;99.90
76866;BME280;66647;52.124;5.416;2023-05-10T01:52:18;100956.16;;;12.30;99.55
76866;BME280;66647;52.124;5.416;2023-05-10T01:55:13;100953.09;;;12.31;99.89
76866;BME280;66647;52.124;5.416;2023-05-10T01:57:39;100951.13;;;12.32;100.00
76866;BME280;66647;52.124;5.416;2023-05-10T02:00:07;100951.13;;;12.32;99.69
76866;BME280;66647;52.124;5.416;2023-05-10T02:02:45;100946.78;;;12.31;99.72
76866;BME280;66647;52.124;5.416;2023-05-10T02:05:14;100955.69;;;12.28;99.99
76866;BME280;66647;52.124;5.416;2023-05-10T02:07:41;100958.44;;;12.28;99.84
76866;BME280;66647;52.124;5.416;2023-05-10T02:10:09;100965.88;;;12.27;100.00
76866;BME280;66647;52.124;5.416;2023-05-10T02:12:41;100961.19;;;12.28;99.63
76866;BME280;66647;52.124;5.416;2023-05-10T02:15:08;100965.09;;;12.27;99.81
76866;BME280;66647;52.124;5.416;2023-05-10T02:17:37;100965.09;;;12.27;99.75
76866;BME280;66647;52.124;5.416;2023-05-10T02:20:07;100962.81;;;12.29;100.00
76866;BME280;66647;52.124;5.416;2023-05-10T02:22:35;100969.09;;;12.29;100.00
76866;BME280;66647;52.124;5.416;2023-05-10T02:25:03;100969.09;;;12.29;100.00
76866;BME280;66647;52.124;5.416;2023-05-10T02:27:30;100969.09;;;12.29;99.77
76866;BME280;66647;52.124;5.416;2023-05-10T02:29:58;100971.38;;;12.27;100.00
76866;BME280;66647;52.124;5.416;2023-05-10T02:32:26;100974.81;;;12.24;100.00
76866;BME280;66647;52.124;5.416;2023-05-10T02:34:55;100979.81;;;12.22;99.82
76866;BME280;66647;52.124;5.416;2023-05-10T02:37:23;100979.81;;;12.22;100.00
76866;BME280;66647;52.124;5.416;2023-05-10T02:39:53;100981.78;;;12.22;100.00
76866;BME280;66647;52.124;5.416;2023-05-10T02:42:27;100979.69;;;12.19;99.52
76866;BME280;66647;52.124;5.416;2023-05-10T02:45:00;100983.91;;;12.16;100.00
76866;BME280;66647;52.124;5.416;2023-05-10T02:47:28;100989.53;;;12.20;100.00
76866;BME280;66647;52.124;5.416;2023-05-10T02:49:55;100989.22;;;12.21;100.00
76866;BME280;66647;52.124;5.416;2023-05-10T02:52:25;100986.47;;;12.21;99.78
76866;BME280;66647;52.124;5.416;2023-05-10T02:54:55;100982.09;;;12.20;100.00
76866;BME280;66647;52.124;5.416;2023-05-10T02:57:28;100986.78;;;12.20;99.67
76866;BME280;66647;52.124;5.416;2023-05-10T02:59:58;100992.16;;;12.16;99.75
76866;BME280;66647;52.124;5.416;2023-05-10T03:02:26;100986.38;;;12.09;99.93
76866;BME280;66647;52.124;5.416;2023-05-10T03:04:53;100994.78;;;12.04;99.82
76866;BME280;66647;52.124;5.416;2023-05-10T03:07:19;100994.19;;;11.98;99.46
76866;BME280;66647;52.124;5.416;2023-05-10T03:09:48;100996.94;;;11.98;99.59
76866;BME280;66647;52.124;5.416;2023-05-10T03:15:25;100998.41;;;11.96;99.60
76866;BME280;66647;52.124;5.416;2023-05-10T03:18:07;100998.28;;;11.92;99.66
76866;BME280;66647;52.124;5.416;2023-05-10T03:20:39;101002.97;;;11.92;99.15
76866;BME280;66647;52.124;5.416;2023-05-10T03:23:12;101002.97;;;11.92;99.74
76866;BME280;66647;52.124;5.416;2023-05-10T03:25:40;101003.28;;;11.90;99.76
76866;BME280;66647;52.124;5.416;2023-05-10T03:28:07;101005.88;;;11.87;99.49
76866;BME280;66647;52.124;5.416;2023-05-10T03:30:35;101004.75;;;11.88;99.69
76866;BME280;66647;52.124;5.416;2023-05-10T03:33:05;101011.53;;;11.90;99.71
76866;BME280;66647;52.124;5.416;2023-05-10T03:35:39;101004.09;;;11.91;99.49
76866;BME280;66647;52.124;5.416;2023-05-10T03:38:05;101014.75;;;11.92;99.77
76866;BME280;66647;52.124;5.416;2023-05-10T03:40:32;101009.13;;;11.89;99.42
76866;BME280;66647;52.124;5.416;2023-05-10T03:42:59;101008.63;;;11.87;99.58
76866;BME280;66647;52.124;5.416;2023-05-10T03:45:26;101003.47;;;11.85;99.58
76866;BME280;66647;52.124;5.416;2023-05-10T03:47:53;101004.28;;;11.86;99.75
76866;BME280;66647;52.124;5.416;2023-05-10T03:50:20;100999.59;;;11.86;99.83
76866;BME280;66647;52.124;5.416;2023-05-10T03:52:47;101001.19;;;11.87;99.48
76866;BME280;66647;52.124;5.416;2023-05-10T03:55:14;101004.75;;;11.88;99.59
76866;BME280;66647;52.124;5.416;2023-05-10T03:57:40;101001.19;;;11.87;99.70
76866;BME280;66647;52.124;5.416;2023-05-10T04:00:07;101008.31;;;11.88;99.38
76866;BME280;66647;52.124;5.416;2023-05-10T04:02:40;101011.38;;;11.87;99.90
76866;BME280;66647;52.124;5.416;2023-05-10T04:05:10;101016.56;;;11.88;99.48
76866;BME280;66647;52.124;5.416;2023-05-10T04:07:37;101005.41;;;11.85;99.67
76866;BME280;66647;52.124;5.416;2023-05-10T04:10:04;101010.44;;;11.83;99.76
76866;BME280;66647;52.124;5.416;2023-05-10T04:12:30;101015.13;;;11.82;99.79
76866;BME280;66647;52.124;5.416;2023-05-10T04:14:57;101015.13;;;11.82;99.77
76866;BME280;66647;52.124;5.416;2023-05-10T04:17:23;101030.47;;;11.83;99.97
76866;BME280;66647;52.124;5.416;2023-05-10T04:19:50;101018.34;;;11.84;100.00
76866;BME280;66647;52.124;5.416;2023-05-10T04:22:19;101016.06;;;11.86;99.90
76866;BME280;66647;52.124;5.416;2023-05-10T04:24:45;101015.28;;;11.86;100.00
76866;BME280;66647;52.124;5.416;2023-05-10T04:27:12;101014.47;;;11.85;99.86
76866;BME280;66647;52.124;5.416;2023-05-10T04:29:38;101013.00;;;11.88;99.94
76866;BME280;66647;52.124;5.416;2023-05-10T04:32:05;101009.44;;;11.87;99.97
76866;BME280;66647;52.124;5.416;2023-05-10T04:34:31;101018.81;;;11.86;99.78
76866;BME280;66647;52.124;5.416;2023-05-10T04:37:00;101014.47;;;11.85;99.96
76866;BME280;66647;52.124;5.416;2023-05-10T04:39:26;101015.75;;;11.88;100.00
76866;BME280;66647;52.124;5.416;2023-05-10T04:41:53;101013.81;;;11.88;100.00
76866;BME280;66647;52.124;5.416;2023-05-10T04:44:19;101016.06;;;11.86;99.99
76866;BME280;66647;52.124;5.416;2023-05-10T04:46:46;101013.81;;;11.88;100.00
76866;BME280;66647;52.124;5.416;2023-05-10T04:49:12;101027.06;;;11.86;100.00
76866;BME280;66647;52.124;5.416;2023-05-10T04:51:40;101025.59;;;11.89;100.00
76866;BME280;66647;52.124;5.416;2023-05-10T04:54:06;101024.94;;;11.92;100.00
76866;BME280;66647;52.124;5.416;2023-05-10T04:56:33;101029.63;;;11.91;100.00
76866;BME280;66647;52.124;5.416;2023-05-10T04:59:00;101037.22;;;11.94;100.00
76866;BME280;66647;52.124;5.416;2023-05-10T05:01:26;101037.69;;;11.96;99.97
76866;BME280;66647;52.124;5.416;2023-05-10T05:03:53;101031.41;;;11.96;100.00
76866;BME280;66647;52.124;5.416;2023-05-10T05:06:20;101038.19;;;11.98;100.00
76866;BME280;66647;52.124;5.416;2023-05-10T05:08:51;101030.84;;;12.02;100.00
76866;BME280;66647;52.124;5.416;2023-05-10T05:11:17;101037.97;;;12.03;100.00
76866;BME280;66647;52.124;5.416;2023-05-10T05:13:44;101051.38;;;12.05;100.00
76866;BME280;66647;52.124;5.416;2023-05-10T05:16:10;101046.56;;;12.02;100.00
76866;BME280;66647;52.124;5.416;2023-05-10T05:18:39;101042.00;;;12.06;99.95
76866;BME280;66647;52.124;5.416;2023-05-10T05:21:16;101051.53;;;12.08;100.00
76866;BME280;66647;52.124;5.416;2023-05-10T05:23:43;101043.59;;;12.07;100.00
76866;BME280;66647;52.124;5.416;2023-05-10T05:26:10;101053.13;;;12.09;100.00
76866;BME280;66647;52.124;5.416;2023-05-10T05:28:37;101067.22;;;12.08;99.99
76866;BME280;66647;52.124;5.416;2023-05-10T05:31:04;101063.31;;;12.09;100.00
76866;BME280;66647;52.124;5.416;2023-05-10T05:33:31;101064.13;;;12.09;100.00
76866;BME280;66647;52.124;5.416;2023-05-10T05:36:03;101066.41;;;12.07;100.00
76866;BME280;66647;52.124;5.416;2023-05-10T05:38:30;101074.00;;;12.10;100.00
76866;BME280;66647;52.124;5.416;2023-05-10T05:40:57;101063.31;;;12.09;100.00
76866;BME280;66647;52.124;5.416;2023-05-10T05:43:24;101065.28;;;12.08;99.89
76866;BME280;66647;52.124;5.416;2023-05-10T05:45:52;101059.78;;;12.08;99.84
76866;BME280;66647;52.124;5.416;2023-05-10T05:48:20;101067.22;;;12.08;100.00
76866;BME280;66647;52.124;5.416;2023-05-10T05:50:47;101073.19;;;12.10;100.00
76866;BME280;66647;52.124;5.416;2023-05-10T05:53:13;101080.31;;;12.11;100.00
76866;BME280;66647;52.124;5.416;2023-05-10T05:55:40;101074.00;;;12.10;100.00
76866;BME280;66647;52.124;5.416;2023-05-10T05:58:06;101083.38;;;12.09;100.00
76866;BME280;66647;52.124;5.416;2023-05-10T06:00:34;101085.66;;;12.07;100.00
76866;BME280;66647;52.124;5.416;2023-05-10T06:03:01;101083.56;;;12.04;100.00
76866;BME280;66647;52.124;5.416;2023-05-10T06:05:27;101087.00;;;12.01;100.00
76866;BME280;66647;52.124;5.416;2023-05-10T06:07:56;101093.94;;;11.99;99.76
76866;BME280;66647;52.124;5.416;2023-05-10T06:10:22;101098.63;;;11.98;100.00
76866;BME280;66647;52.124;5.416;2023-05-10T06:12:50;101098.31;;;12.00;99.70
76866;BME280;66647;52.124;5.416;2023-05-10T06:15:17;101098.63;;;11.98;100.00
76866;BME280;66647;52.124;5.416;2023-05-10T06:17:43;101095.09;;;11.98;99.95
76866;BME280;66647;52.124;5.416;2023-05-10T06:20:11;101108.50;;;11.99;100.00
76866;BME280;66647;52.124;5.416;2023-05-10T06:22:38;101106.56;;;12.00;99.59
76866;BME280;66647;52.124;5.416;2023-05-10T06:25:04;101104.13;;;11.98;99.70
76866;BME280;66647;52.124;5.416;2023-05-10T06:27:31;101105.28;;;11.97;99.32
76866;BME280;66647;52.124;5.416;2023-05-10T06:29:58;101103.66;;;11.96;99.39
76866;BME280;66647;52.124;5.416;2023-05-10T06:32:38;101107.38;;;12.00;99.87
76866;BME280;66647;52.124;5.416;2023-05-10T06:35:05;101103.47;;;12.01;99.86
76866;BME280;66647;52.124;5.416;2023-05-10T06:37:32;101104.28;;;12.02;99.53
76866;BME280;66647;52.124;5.416;2023-05-10T06:39:58;101109.78;;;12.02;99.72
76866;BME280;66647;52.124;5.416;2023-05-10T06:42:25;101109.09;;;12.05;99.22
76866;BME280;66647;52.124;5.416;2023-05-10T06:44:51;101116.03;;;12.11;99.24
76866;BME280;66647;52.124;5.416;2023-05-10T06:47:18;101116.84;;;12.11;99.45
76866;BME280;66647;52.124;5.416;2023-05-10T06:49:45;101123.44;;;12.19;99.45
76866;BME280;66647;52.124;5.416;2023-05-10T06:52:11;101121.81;;;12.27;99.26
76866;BME280;66647;52.124;5.416;2023-05-10T06:54:38;101122.47;;;12.24;98.82
76866;BME280;66647;52.124;5.416;2023-05-10T06:57:04;101131.22;;;12.17;98.85
76866;BME280;66647;52.124;5.416;2023-05-10T06:59:49;101132.53;;;12.11;98.80
76866;BME280;66647;52.124;5.416;2023-05-10T07:02:15;101126.22;;;12.10;98.71
76866;BME280;66647;52.124;5.416;2023-05-10T07:04:42;101126.22;;;12.10;98.43
76866;BME280;66647;52.124;5.416;2023-05-10T07:07:09;101127.66;;;12.17;98.17
76866;BME280;66647;52.124;5.416;2023-05-10T07:09:36;101140.28;;;12.18;98.59
76866;BME280;66647;52.124;5.416;2023-05-10T07:12:02;101142.53;;;12.16;97.98
76866;BME280;66647;52.124;5.416;2023-05-10T07:14:29;101141.91;;;12.10;97.75
76866;BME280;66647;52.124;5.416;2023-05-10T07:16:55;101150.97;;;12.10;97.92
76866;BME280;66647;52.124;5.416;2023-05-10T07:19:22;101143.69;;;12.15;97.80
76866;BME280;66647;52.124;5.416;2023-05-10T07:21:48;101144.16;;;12.17;97.45
76866;BME280;66647;52.124;5.416;2023-05-10T07:24:15;101143.31;;;12.25;97.69
76866;BME280;66647;52.124;5.416;2023-05-10T07:26:41;101148.50;;;12.26;97.54
76866;BME280;66647;52.124;5.416;2023-05-10T07:29:08;101149.31;;;12.27;97.04
76866;BME280;66647;52.124;5.416;2023-05-10T07:31:34;101152.72;;;12.24;97.29
76866;BME280;66647;52.124;5.416;2023-05-10T07:34:01;101167.25;;;12.24;97.19
76866;BME280;66647;52.124;5.416;2023-05-10T07:36:27;101166.59;;;12.27;97.06
76866;BME280;66647;52.124;5.416;2023-05-10T07:38:54;101168.38;;;12.32;97.15
76866;BME280;66647;52.124;5.416;2023-05-10T07:41:23;101172.53;;;12.38;97.07
76866;BME280;66647;52.124;5.416;2023-05-10T07:43:50;101172.50;;;12.47;96.80
76866;BME280;66647;52.124;5.416;2023-05-10T07:46:16;101173.47;;;12.51;96.58
76866;BME280;66647;52.124;5.416;2023-05-10T07:48:43;101173.09;;;12.61;97.34
76866;BME280;66647;52.124;5.416;2023-05-10T07:51:09;101173.03;;;12.69;96.37
76866;BME280;66647;52.124;5.416;2023-05-10T07:53:37;101172.84;;;12.74;95.80
76866;BME280;66647;52.124;5.416;2023-05-10T07:56:24;101178.78;;;12.85;96.59
76866;BME280;66647;52.124;5.416;2023-05-10T07:58:53;101177.66;;;12.86;96.81
76866;BME280;66647;52.124;5.416;2023-05-10T08:01:20;101177.31;;;12.88;95.88
76866;BME280;66647;52.124;5.416;2023-05-10T08:03:47;101172.13;;;12.86;95.94
76866;BME280;66647;52.124;5.416;2023-05-10T08:06:14;101188.50;;;12.83;95.12
76866;BME280;66647;52.124;5.416;2023-05-10T08:08:41;101194.81;;;12.83;95.92
76866;BME280;66647;52.124;5.416;2023-05-10T08:11:08;101195.81;;;12.78;95.64
76866;BME280;66647;52.124;5.416;2023-05-10T08:13:34;101196.94;;;12.77;94.68
76866;BME280;66647;52.124;5.416;2023-05-10T08:16:01;101193.72;;;12.75;95.55
76866;BME280;66647;52.124;5.416;2023-05-10T08:18:28;101199.06;;;12.72;94.46
76866;BME280;66647;52.124;5.416;2023-05-10T08:20:54;101198.75;;;12.73;94.86
76866;BME280;66647;52.124;5.416;2023-05-10T08:23:21;101205.88;;;12.74;95.02
76866;BME280;66647;52.124;5.416;2023-05-10T08:25:47;101201.97;;;12.75;94.75
76866;BME280;66647;52.124;5.416;2023-05-10T08:28:14;101205.25;;;12.69;94.64
76866;BME280;66647;52.124;5.416;2023-05-10T08:30:41;101205.06;;;12.74;95.77
76866;BME280;66647;52.124;5.416;2023-05-10T08:33:07;101209.38;;;12.84;94.82
76866;BME280;66647;52.124;5.416;2023-05-10T08:35:34;101210.16;;;12.93;95.33
76866;BME280;66647;52.124;5.416;2023-05-10T08:38:01;101214.66;;;12.97;95.22
76866;BME280;66647;52.124;5.416;2023-05-10T08:40:27;101220.28;;;13.01;95.38
76866;BME280;66647;52.124;5.416;2023-05-10T08:43:08;101218.81;;;13.03;94.80
76866;BME280;66647;52.124;5.416;2023-05-10T08:45:40;101222.53;;;13.07;95.30
76866;BME280;66647;52.124;5.416;2023-05-10T08:48:08;101237.09;;;13.08;94.52
76866;BME280;66647;52.124;5.416;2023-05-10T08:50:37;101234.97;;;13.13;94.73
76866;BME280;66647;52.124;5.416;2023-05-10T08:53:09;101229.97;;;13.16;95.12
76866;BME280;66647;52.124;5.416;2023-05-10T08:55:37;101244.34;;;13.12;93.83
76866;BME280;66647;52.124;5.416;2023-05-10T08:58:05;101236.44;;;13.11;94.99
76866;BME280;66647;52.124;5.416;2023-05-10T09:00:32;101239.03;;;13.16;94.21
76866;BME280;66647;52.124;5.416;2023-05-10T09:03:00;101245.47;;;13.20;94.95
76866;BME280;66647;52.124;5.416;2023-05-10T09:05:27;101239.59;;;13.30;93.45
76866;BME280;66647;52.124;5.416;2023-05-10T09:07:53;101244.50;;;13.45;93.99
76866;BME280;66647;52.124;5.416;2023-05-10T09:10:20;101238.59;;;13.56;93.55
76866;BME280;66647;52.124;5.416;2023-05-10T09:12:48;101240.91;;;13.66;92.41
76866;BME280;66647;52.124;5.416;2023-05-10T09:15:15;101232.50;;;13.83;92.36
76866;BME280;66647;52.124;5.416;2023-05-10T09:17:43;101230.97;;;13.94;91.32
76866;BME280;66647;52.124;5.416;2023-05-10T09:20:10;101240.06;;;14.07;91.35
76866;BME280;66647;52.124;5.416;2023-05-10T09:22:37;101239.78;;;14.21;90.00
76866;BME280;66647;52.124;5.416;2023-05-10T09:27:33;101240.81;;;14.61;91.33
76866;BME280;66647;52.124;5.416;2023-05-10T09:30:00;101244.03;;;14.75;91.21
76866;BME280;66647;52.124;5.416;2023-05-10T09:32:47;101246.78;;;15.00;89.85
76866;BME280;66647;52.124;5.416;2023-05-10T09:35:15;101248.81;;;15.27;89.04
76866;BME280;66647;52.124;5.416;2023-05-10T09:37:44;101253.63;;;15.42;88.32
76866;BME280;66647;52.124;5.416;2023-05-10T09:40:14;101252.16;;;15.57;84.91
76866;BME280;66647;52.124;5.416;2023-05-10T09:43:04;101259.16;;;15.55;85.11
76866;BME280;66647;52.124;5.416;2023-05-10T09:45:33;101260.53;;;15.61;84.73
76866;BME280;66647;52.124;5.416;2023-05-10T09:48:04;101261.41;;;15.77;83.95
76866;BME280;66647;52.124;5.416;2023-05-10T09:50:31;101266.13;;;15.76;83.92
76866;BME280;66647;52.124;5.416;2023-05-10T09:52:59;101264.19;;;15.77;82.61
76866;BME280;66647;52.124;5.416;2023-05-10T09:58:05;101278.13;;;15.81;84.19
76866;BME280;66647;52.124;5.416;2023-05-10T10:00:43;101278.25;;;15.72;84.86
76866;BME280;66647;52.124;5.416;2023-05-10T10:03:15;101271.25;;;15.62;83.17
76866;BME280;66647;52.124;5.416;2023-05-10T10:05:43;101285.78;;;15.59;84.16
76866;BME280;66647;52.124;5.416;2023-05-10T10:08:10;101281.28;;;15.42;85.44
76866;BME280;66647;52.124;5.416;2023-05-10T10:10:41;101279.66;;;15.29;83.27
76866;BME280;66647;52.124;5.416;2023-05-10T10:13:08;101285.13;;;15.26;86.55
76866;BME280;66647;52.124;5.416;2023-05-10T10:15:38;101286.59;;;15.23;85.60
76866;BME280;66647;52.124;5.416;2023-05-10T10:18:30;101295.44;;;15.29;84.88
76866;BME280;66647;52.124;5.416;2023-05-10T10:20:57;101290.72;;;15.41;84.65
76866;BME280;66647;52.124;5.416;2023-05-10T10:23:25;101294.78;;;15.56;84.63
76866;BME280;66647;52.124;5.416;2023-05-10T10:25:53;101294.84;;;15.60;83.23
76866;BME280;66647;52.124;5.416;2023-05-10T10:28:37;101295.78;;;15.64;83.58
76866;BME280;66647;52.124;5.416;2023-05-10T10:31:26;101295.88;;;15.67;84.15
76866;BME280;66647;52.124;5.416;2023-05-10T10:34:06;101299.22;;;15.61;85.19
76866;BME280;66647;52.124;5.416;2023-05-10T10:36:54;101295.66;;;15.60;85.38
76866;BME280;66647;52.124;5.416;2023-05-10T10:39:21;101305.47;;;15.58;82.44
76866;BME280;66647;52.124;5.416;2023-05-10T10:41:52;101300.63;;;15.55;84.47
76866;BME280;66647;52.124;5.416;2023-05-10T10:52:31;101299.59;;;15.59;81.47
76866;BME280;66647;52.124;5.416;2023-05-10T10:55:20;101301.53;;;15.46;82.05
76866;BME280;66647;52.124;5.416;2023-05-10T10:57:55;101299.25;;;15.49;80.99
76866;BME280;66647;52.124;5.416;2023-05-10T11:00:36;101305.34;;;15.54;81.56
76866;BME280;66647;52.124;5.416;2023-05-10T11:03:04;101302.81;;;15.61;82.78
76866;BME280;66647;52.124;5.416;2023-05-10T11:13:29;101304.34;;;15.59;83.31
76866;BME280;66647;52.124;5.416;2023-05-10T11:15:56;101309.94;;;15.50;80.83
76866;BME280;66647;52.124;5.416;2023-05-10T11:18:28;101307.53;;;15.36;81.87
76866;BME280;66647;52.124;5.416;2023-05-10T11:21:00;101307.31;;;15.41;83.94
76866;BME280;66647;52.124;5.416;2023-05-10T11:23:47;101304.66;;;15.45;82.92
76866;BME280;66647;52.124;5.416;2023-05-10T11:26:15;101315.13;;;15.52;82.23
76866;BME280;66647;52.124;5.416;2023-05-10T11:28:46;101313.44;;;15.59;82.51
76866;BME280;66647;52.124;5.416;2023-05-10T11:31:14;101310.28;;;15.73;80.05
76866;BME280;66647;52.124;5.416;2023-05-10T11:33:51;101305.28;;;15.91;82.50
76866;BME280;66647;52.124;5.416;2023-05-10T11:36:21;101301.63;;;16.15;82.02
76866;BME280;66647;52.124;5.416;2023-05-10T11:38:48;101301.50;;;16.39;80.86
76866;BME280;66647;52.124;5.416;2023-05-10T11:41:16;101303.94;;;16.56;79.63
76866;BME280;66647;52.124;5.416;2023-05-10T11:43:46;101299.69;;;17.06;78.99
76866;BME280;66647;52.124;5.416;2023-05-10T11:46:13;101298.22;;;17.43;76.43
76866;BME280;66647;52.124;5.416;2023-05-10T11:48:41;101312.31;;;17.54;76.96
76866;BME280;66647;52.124;5.416;2023-05-10T11:51:08;101314.13;;;17.46;73.61
76866;BME280;66647;52.124;5.416;2023-05-10T11:53:35;101307.78;;;17.46;75.53
76866;BME280;66647;52.124;5.416;2023-05-10T11:56:06;101301.97;;;17.35;78.32
76866;BME280;66647;52.124;5.416;2023-05-10T11:58:33;101311.13;;;17.20;75.99
76866;BME280;66647;52.124;5.416;2023-05-10T12:01:00;101311.22;;;16.92;74.80
76866;BME280;66647;52.124;5.416;2023-05-10T12:03:27;101319.88;;;16.75;75.44
76866;BME280;66647;52.124;5.416;2023-05-10T12:05:55;101321.56;;;16.64;78.80
76866;BME280;66647;52.124;5.416;2023-05-10T12:08:24;101323.75;;;16.58;78.20
76866;BME280;66647;52.124;5.416;2023-05-10T12:10:54;101321.56;;;16.64;78.38
76866;BME280;66647;52.124;5.416;2023-05-10T12:13:29;101317.03;;;16.71;78.47
76866;BME280;66647;52.124;5.416;2023-05-10T12:15:59;101316.41;;;16.78;77.40
76866;BME280;66647;52.124;5.416;2023-05-10T12:18:26;101322.03;;;16.82;77.41
76866;BME280;66647;52.124;5.416;2023-05-10T12:20:53;101315.59;;;16.93;78.56
76866;BME280;66647;52.124;5.416;2023-05-10T12:23:20;101317.03;;;17.03;75.58
76866;BME280;66647;52.124;5.416;2023-05-10T12:25:47;101322.66;;;16.91;74.63
76866;BME280;66647;52.124;5.416;2023-05-10T12:28:13;101319.81;;;16.87;75.66
76866;BME280;66647;52.124;5.416;2023-05-10T12:30:39;101324.81;;;16.97;75.49
76866;BME280;66647;52.124;5.416;2023-05-10T12:33:11;101318.38;;;17.09;75.11
76866;BME280;66647;52.124;5.416;2023-05-10T12:35:46;101314.97;;;17.16;75.03
76866;BME280;66647;52.124;5.416;2023-05-10T12:38:32;101315.13;;;17.38;75.19
76866;BME280;66647;52.124;5.416;2023-05-10T12:41:03;101318.38;;;17.60;77.14
76866;BME280;66647;52.124;5.416;2023-05-10T12:43:30;101317.56;;;17.75;73.37
76866;BME280;66647;52.124;5.416;2023-05-10T12:45:58;101315.25;;;17.96;72.76
76866;BME280;66647;52.124;5.416;2023-05-10T12:48:25;101315.69;;;17.98;70.33
76866;BME280;66647;52.124;5.416;2023-05-10T12:50:51;101313.63;;;17.95;71.19
76866;BME280;66647;52.124;5.416;2023-05-10T12:53:17;101316.56;;;18.02;75.07
76866;BME280;66647;52.124;5.416;2023-05-10T12:55:44;101328.53;;;18.06;71.34
76866;BME280;66647;52.124;5.416;2023-05-10T12:58:10;101324.72;;;17.95;72.87
76866;BME280;66647;52.124;5.416;2023-05-10T13:00:53;101326.97;;;17.70;71.12
76866;BME280;66647;52.124;5.416;2023-05-10T13:03:20;101334.88;;;17.53;72.26
76866;BME280;66647;52.124;5.416;2023-05-10T13:05:46;101331.47;;;17.43;73.01
76866;BME280;66647;52.124;5.416;2023-05-10T13:08:13;101334.97;;;17.40;74.39
76866;BME280;66647;52.124;5.416;2023-05-10T13:10:39;101339.09;;;17.31;74.70
76866;BME280;66647;52.124;5.416;2023-05-10T13:13:06;101339.91;;;17.16;75.60
76866;BME280;66647;52.124;5.416;2023-05-10T13:15:34;101343.31;;;17.09;74.97
76866;BME280;66647;52.124;5.416;2023-05-10T13:18:01;101348.75;;;16.90;75.54
76866;BME280;66647;52.124;5.416;2023-05-10T13:20:28;101353.84;;;16.60;76.70
76866;BME280;66647;52.124;5.416;2023-05-10T13:22:54;101360.56;;;16.31;77.44
76866;BME280;66647;52.124;5.416;2023-05-10T13:25:20;101364.81;;;16.00;78.73
76866;BME280;66647;52.124;5.416;2023-05-10T13:27:47;101361.53;;;15.70;80.83
76866;BME280;66647;52.124;5.416;2023-05-10T13:30:13;101367.53;;;15.60;82.34
76866;BME280;66647;52.124;5.416;2023-05-10T13:32:40;101369.13;;;15.37;83.04